createdAt,value
2018-11-14T00:00:26.880Z,2.5
2018-11-14T00:01:34.081Z,2.5
2018-11-14T00:02:41.020Z,2.5
2018-11-14T00:03:47.939Z,2.5
2018-11-14T00:04:55.137Z,2.5
2018-11-14T00:06:02.334Z,2.5
2018-11-14T00:07:09.540Z,2.5
2018-11-14T00:08:16.198Z,2.5
2018-11-14T00:09:23.228Z,2.5
2018-11-14T00:10:30.185Z,2.5
2018-11-14T00:11:37.108Z,2.4
2018-11-14T00:12:44.304Z,2.4
2018-11-14T00:13:50.957Z,2.4
2018-11-14T00:14:58.155Z,2.3
2018-11-14T00:16:05.075Z,2.4
2018-11-14T00:17:11.995Z,2.3
2018-11-14T00:18:19.200Z,2.4
2018-11-14T00:19:25.859Z,2.3
2018-11-14T00:20:32.828Z,2.3
2018-11-14T00:21:40.032Z,2.4
2018-11-14T00:22:47.231Z,2.4
2018-11-14T00:23:53.884Z,2.4
2018-11-14T00:25:00.526Z,2.3
2018-11-14T00:26:07.448Z,2.4
2018-11-14T00:27:14.652Z,2.4
2018-11-14T00:28:22.336Z,2.4
2018-11-14T00:29:30.196Z,2.4
2018-11-14T00:30:38.340Z,2.4
2018-11-14T00:31:45.269Z,2.4
2018-11-14T00:32:52.199Z,2.4
2018-11-14T00:33:59.117Z,2.3
2018-11-14T00:35:06.036Z,2.3
2018-11-14T00:36:13.232Z,2.2
2018-11-14T00:37:20.161Z,2.2
2018-11-14T00:38:27.357Z,2.2
2018-11-14T00:39:34.293Z,2.2
2018-11-14T00:40:41.167Z,2.3
2018-11-14T00:41:48.104Z,2.3
2018-11-14T00:42:55.313Z,2.3
2018-11-14T00:44:01.963Z,2.3
2018-11-14T00:45:08.615Z,2.2
2018-11-14T00:46:15.545Z,2.2
2018-11-14T00:47:22.787Z,2.2
2018-11-14T00:48:29.988Z,2.1
2018-11-14T00:49:37.184Z,2.2
2018-11-14T00:50:44.111Z,2.2
2018-11-14T00:51:51.315Z,2.2
2018-11-14T00:52:58.238Z,2.2
2018-11-14T00:54:05.174Z,2.2
2018-11-14T00:55:12.103Z,2.1
2018-11-14T00:56:19.313Z,2.1
2018-11-14T00:57:26.505Z,2
2018-11-14T00:58:33.703Z,2
2018-11-14T00:59:40.621Z,2
2018-11-14T01:00:47.818Z,2.1
2018-11-14T01:01:54.482Z,2.1
2018-11-14T01:03:01.415Z,2.1
2018-11-14T01:04:08.339Z,2.1
2018-11-14T01:05:15.549Z,2.1
2018-11-14T01:06:22.827Z,2.1
2018-11-14T01:07:29.758Z,2.1
2018-11-14T01:08:36.412Z,2.1
2018-11-14T01:09:43.340Z,2.1
2018-11-14T01:10:50.268Z,2.1
2018-11-14T01:11:57.468Z,2.1
2018-11-14T01:13:04.783Z,2.1
2018-11-14T01:14:12.167Z,2.1
2018-11-14T01:15:19.096Z,2.1
2018-11-14T01:16:26.021Z,2.1
2018-11-14T01:17:33.228Z,2
2018-11-14T01:18:40.431Z,2
2018-11-14T01:19:47.355Z,2
2018-11-14T01:20:54.555Z,2
2018-11-14T01:22:01.757Z,2
2018-11-14T01:23:08.407Z,2
2018-11-14T01:24:15.331Z,2
2018-11-14T01:25:22.261Z,2
2018-11-14T01:26:29.216Z,2
2018-11-14T01:27:36.141Z,2
2018-11-14T01:28:43.067Z,2
2018-11-14T01:29:50.274Z,1.9
2018-11-14T01:30:57.472Z,1.9
2018-11-14T01:32:04.668Z,2
2018-11-14T01:33:11.864Z,2
2018-11-14T01:34:19.075Z,2
2018-11-14T01:35:26.268Z,2
2018-11-14T01:36:33.460Z,2
2018-11-14T01:37:40.386Z,2
2018-11-14T01:38:47.309Z,1.9
2018-11-14T01:39:54.503Z,1.9
2018-11-14T01:41:01.229Z,1.9
2018-11-14T01:42:08.205Z,1.8
2018-11-14T01:43:15.129Z,1.8
2018-11-14T01:44:22.327Z,1.7
2018-11-14T01:45:29.254Z,1.7
2018-11-14T01:46:36.177Z,1.7
2018-11-14T23:00:06.919Z,6
2018-11-14T23:01:13.842Z,6
2018-11-14T23:02:21.042Z,5.9
2018-11-14T23:03:27.965Z,5.9
2018-11-14T23:04:35.163Z,6
2018-11-14T23:05:42.370Z,5.9
2018-11-14T23:06:49.574Z,6
2018-11-14T23:07:56.776Z,6
2018-11-14T23:09:03.994Z,6
2018-11-14T23:10:11.202Z,6
2018-11-14T23:11:18.409Z,6
2018-11-14T23:12:25.613Z,6
2018-11-14T23:13:32.272Z,6
2018-11-14T23:14:39.189Z,6
2018-11-14T23:15:46.191Z,6
2018-11-14T23:16:53.259Z,6
2018-11-14T23:18:00.195Z,5.9
2018-11-14T23:19:07.398Z,5.9
2018-11-14T23:20:14.590Z,5.9
2018-11-14T23:21:21.793Z,5.9
2018-11-14T23:22:28.725Z,5.9
2018-11-14T23:23:35.657Z,5.9
2018-11-14T23:24:42.585Z,5.9
2018-11-14T23:25:49.512Z,5.9
2018-11-14T23:26:56.432Z,5.9
2018-11-14T23:28:02.534Z,5.9
2018-11-14T23:29:09.728Z,5.9
2018-11-14T23:30:16.930Z,5.9
2018-11-14T23:31:24.127Z,5.9
2018-11-14T23:32:31.329Z,5.9
2018-11-14T23:33:38.528Z,5.8
2018-11-14T23:34:45.730Z,5.8
2018-11-14T23:35:52.930Z,5.8
2018-11-14T23:37:00.131Z,5.8
2018-11-14T23:38:07.327Z,5.8
2018-11-14T23:39:14.524Z,5.8
2018-11-14T23:40:20.893Z,5.8
2018-11-14T23:41:28.090Z,5.8
2018-11-14T23:42:35.286Z,5.8
2018-11-14T23:43:42.490Z,5.8
2018-11-14T23:44:49.134Z,5.8
2018-11-14T23:45:55.517Z,5.8
2018-11-14T23:47:02.720Z,5.8
2018-11-14T23:48:09.640Z,5.8
2018-11-14T23:49:16.568Z,5.7
2018-11-14T23:50:23.769Z,5.7
2018-11-14T23:51:30.689Z,5.7
2018-11-14T23:52:37.890Z,5.7
2018-11-14T23:53:44.820Z,5.7
2018-11-14T23:54:51.762Z,5.8
2018-11-14T23:55:58.417Z,5.8
2018-11-14T23:57:05.335Z,5.8
2018-11-14T23:58:12.540Z,5.8
2018-11-14T23:59:19.204Z,5.8
